createdAt,value
2019-05-21T00:01:56.316Z,13.66
2019-05-21T00:04:28.438Z,13.68
2019-05-21T00:06:56.321Z,13.68
2019-05-21T00:09:25.412Z,13.68
2019-05-21T00:11:54.510Z,13.68
2019-05-21T00:14:23.721Z,13.60
2019-05-21T00:16:52.820Z,13.52
2019-05-21T00:19:21.879Z,12.82
2019-05-21T00:21:50.978Z,13.57
2019-05-21T00:24:20.155Z,13.56
2019-05-21T00:26:49.220Z,13.59
2019-05-21T00:29:54.019Z,13.49
2019-05-21T00:32:58.443Z,13.53
2019-05-21T00:36:02.949Z,13.73
2019-05-21T00:39:07.492Z,13.66
2019-05-21T00:42:02.717Z,13.75
2019-05-21T00:44:33.992Z,13.64
2019-05-21T00:47:03.178Z,13.62
2019-05-21T00:49:32.422Z,13.58
2019-05-21T00:52:08.056Z,13.60
2019-05-21T00:54:32.259Z,13.66
2019-05-21T00:57:01.339Z,13.59
2019-05-21T00:59:30.491Z,13.57
2019-05-21T01:01:59.566Z,13.64
2019-05-21T01:04:30.298Z,13.68
2019-05-21T01:06:59.402Z,13.64
2019-05-21T01:09:28.509Z,13.59
2019-05-21T01:11:57.688Z,13.69
2019-05-21T01:14:26.801Z,13.46
2019-05-21T01:16:55.911Z,13.47
2019-05-21T01:19:24.968Z,13.47
2019-05-21T01:21:54.072Z,13.57
2019-05-21T01:24:23.189Z,13.51
2019-05-21T01:26:52.290Z,13.53
2019-05-21T01:29:21.392Z,13.54
2019-05-21T01:31:50.540Z,13.47
2019-05-21T01:34:19.749Z,13.41
2019-05-21T01:36:48.869Z,13.52
2019-05-21T01:39:17.963Z,13.39
2019-05-21T01:41:47.135Z,13.58
2019-05-21T01:44:16.291Z,13.42
2019-05-21T01:46:45.425Z,13.29
2019-05-21T01:49:14.546Z,13.27
2019-05-21T01:51:43.672Z,13.35
2019-05-21T01:54:12.784Z,13.39
2019-05-21T01:56:42.000Z,13.46
2019-05-21T01:59:11.095Z,13.56
2019-05-21T02:01:40.346Z,13.40
2019-05-21T02:04:09.428Z,13.33
2019-05-21T02:06:38.569Z,13.28
2019-05-21T02:09:08.739Z,13.33
2019-05-21T02:11:37.908Z,13.29
2019-05-21T02:14:07.020Z,13.22
2019-05-21T02:16:36.186Z,13.17
2019-05-21T02:19:05.229Z,13.02
2019-05-21T02:21:34.417Z,13.05
2019-05-21T02:24:03.516Z,13.06
2019-05-21T02:26:32.617Z,13.07
2019-05-21T02:29:01.912Z,13.06
2019-05-21T02:31:31.051Z,13.12
2019-05-21T02:34:00.148Z,13.04
2019-05-21T02:36:29.347Z,12.96
2019-05-21T02:38:58.371Z,12.98
2019-05-21T02:41:27.575Z,13.01
2019-05-21T02:43:56.761Z,13.15
2019-05-21T02:46:25.897Z,13.02
2019-05-21T02:48:55.005Z,12.96
2019-05-21T02:51:24.206Z,13.02
2019-05-21T02:53:53.339Z,13.11
2019-05-21T02:56:22.351Z,12.97
2019-05-21T02:58:51.558Z,13.13
2019-05-21T03:01:37.519Z,13.14
2019-05-21T03:04:06.758Z,13.04
2019-05-21T03:06:35.895Z,12.95
2019-05-21T03:09:06.250Z,12.91
2019-05-21T03:11:35.526Z,12.99
2019-05-21T03:14:04.685Z,13.10
2019-05-21T03:16:33.799Z,12.99
2019-05-21T03:19:02.936Z,13.16
2019-05-21T03:21:32.087Z,13.08
2019-05-21T03:24:01.622Z,13.06
2019-05-21T03:26:31.118Z,12.99
2019-05-21T03:29:00.276Z,13.04
2019-05-21T03:31:29.487Z,13.00
2019-05-21T03:33:58.828Z,13.04
2019-05-21T03:36:33.511Z,13.11
2019-05-21T03:38:59.064Z,13.02
2019-05-21T03:41:28.228Z,12.99
2019-05-21T03:43:57.500Z,13.04
2019-05-21T03:46:26.613Z,13.18
2019-05-21T03:48:55.899Z,13.09
2019-05-21T03:51:25.074Z,12.95
2019-05-21T03:53:54.187Z,13.00
2019-05-21T03:56:23.364Z,12.95
2019-05-21T03:58:52.527Z,12.97
2019-05-21T04:01:21.696Z,13.15
2019-05-21T04:03:50.776Z,13.00
2019-05-21T04:06:21.590Z,13.03
2019-05-21T04:08:50.696Z,13.02
2019-05-21T04:11:19.754Z,12.95
2019-05-21T04:13:49.170Z,12.85
2019-05-21T04:16:24.830Z,13.02
2019-05-21T04:19:15.493Z,13.06
2019-05-21T04:21:44.566Z,13.10
2019-05-21T04:24:13.700Z,13.15
2019-05-21T04:26:42.817Z,13.17
2019-05-21T04:29:11.938Z,13.09
2019-05-21T04:31:41.077Z,12.98
2019-05-21T04:34:10.201Z,13.06
2019-05-21T04:36:39.265Z,13.10
2019-05-21T04:39:08.667Z,13.09
2019-05-21T04:41:37.827Z,12.99
2019-05-21T04:44:07.004Z,13.07
2019-05-21T04:46:36.077Z,13.09
2019-05-21T04:49:05.187Z,13.02
2019-05-21T04:51:34.361Z,13.13
2019-05-21T04:54:03.517Z,13.06
2019-05-21T04:56:32.564Z,13.11
2019-05-21T04:59:01.650Z,13.19
2019-05-21T05:01:30.749Z,13.09
2019-05-21T05:03:59.833Z,13.09
2019-05-21T05:06:28.959Z,13.06
2019-05-21T05:08:58.076Z,13.24
2019-05-21T05:11:27.168Z,13.18
2019-05-21T05:13:56.256Z,13.15
2019-05-21T05:16:25.329Z,13.14
2019-05-21T05:18:54.352Z,13.14
2019-05-21T05:21:23.586Z,13.13
2019-05-21T05:23:52.682Z,11.61
2019-05-21T05:26:21.816Z,13.24
2019-05-21T05:28:50.879Z,13.17
2019-05-21T05:31:20.090Z,13.26
2019-05-21T05:33:49.204Z,13.10
2019-05-21T05:36:18.529Z,13.25
2019-05-21T05:38:47.627Z,13.17
2019-05-21T05:41:16.737Z,13.26
2019-05-21T05:43:45.899Z,13.27
2019-05-21T05:46:15.000Z,13.19
2019-05-21T05:48:50.868Z,13.18
2019-05-21T05:51:19.984Z,13.22
2019-05-21T05:53:58.326Z,13.37
2019-05-21T05:56:29.473Z,13.31
2019-05-21T05:58:58.848Z,13.20
2019-05-21T06:01:29.836Z,13.19
2019-05-21T06:03:58.907Z,13.28
2019-05-21T06:06:29.269Z,13.31
2019-05-21T06:08:58.401Z,13.38
2019-05-21T06:11:27.489Z,13.37
2019-05-21T06:13:56.541Z,13.38
2019-05-21T06:16:25.685Z,13.42
2019-05-21T06:18:54.883Z,13.45
2019-05-21T06:21:24.043Z,13.40
2019-05-21T06:23:53.381Z,13.38
2019-05-21T06:26:22.646Z,13.38
2019-05-21T06:28:51.766Z,13.36
2019-05-21T06:31:21.071Z,13.41
2019-05-21T06:33:50.169Z,13.35
2019-05-21T06:36:19.318Z,13.27
2019-05-21T06:38:48.462Z,13.48
2019-05-21T06:41:17.825Z,13.38
2019-05-21T06:43:47.011Z,13.43
2019-05-21T06:46:16.243Z,13.44
2019-05-21T06:48:45.388Z,13.46
2019-05-21T06:51:14.711Z,13.58
2019-05-21T06:53:44.005Z,13.41
2019-05-21T06:56:13.204Z,13.46
2019-05-21T06:58:42.435Z,13.28
2019-05-21T07:01:11.592Z,13.36
2019-05-21T07:03:40.739Z,13.30
2019-05-21T07:06:09.908Z,13.27
2019-05-21T07:08:39.069Z,13.28
2019-05-21T07:11:08.210Z,13.33
2019-05-21T07:13:37.377Z,13.37
2019-05-21T07:16:06.544Z,13.41
2019-05-21T07:18:35.772Z,13.45
2019-05-21T07:21:04.978Z,13.48
2019-05-21T07:23:34.143Z,13.34
2019-05-21T07:26:03.297Z,13.63
2019-05-21T07:28:32.512Z,13.35
2019-05-21T07:31:01.700Z,13.40
2019-05-21T07:33:30.891Z,13.37
2019-05-21T07:35:59.958Z,13.58
2019-05-21T07:38:29.060Z,13.36
2019-05-21T07:40:58.161Z,13.43
2019-05-21T07:43:27.277Z,13.28
2019-05-21T07:45:56.327Z,13.27
2019-05-21T07:48:25.498Z,13.16
2019-05-21T07:50:54.664Z,13.15
2019-05-21T07:53:24.264Z,13.19
2019-05-21T07:55:54.111Z,13.30
2019-05-21T07:58:23.269Z,13.22
2019-05-21T08:00:52.404Z,13.33
2019-05-21T08:03:21.640Z,13.46
2019-05-21T08:05:50.891Z,13.32
2019-05-21T08:08:20.124Z,13.31
2019-05-21T08:10:49.252Z,13.16
2019-05-21T08:13:18.860Z,13.16
2019-05-21T08:15:47.950Z,13.24
2019-05-21T08:18:17.299Z,13.20
2019-05-21T08:20:47.126Z,13.39
2019-05-21T08:23:16.657Z,13.27
2019-05-21T08:25:47.340Z,13.40
2019-05-21T08:28:17.237Z,13.54
2019-05-21T08:30:47.580Z,13.54
2019-05-21T08:33:19.652Z,13.53
2019-05-21T08:35:49.978Z,13.61
2019-05-21T08:38:19.134Z,13.40
2019-05-21T08:40:48.317Z,13.45
2019-05-21T08:43:18.287Z,13.48
2019-05-21T08:45:47.595Z,13.36
2019-05-21T08:48:16.730Z,13.43
2019-05-21T08:50:45.966Z,13.39
2019-05-21T08:53:15.159Z,13.47
2019-05-21T08:55:44.303Z,13.66
2019-05-21T08:58:13.341Z,13.56
2019-05-21T09:00:42.598Z,13.76
2019-05-21T09:03:11.711Z,13.57
2019-05-21T09:05:40.917Z,13.59
2019-05-21T09:08:10.060Z,13.68
2019-05-21T09:10:41.199Z,13.68
2019-05-21T09:13:10.352Z,13.63
2019-05-21T09:15:39.498Z,13.94
2019-05-21T09:18:08.549Z,13.72
2019-05-21T09:20:37.713Z,13.62
2019-05-21T09:23:06.766Z,13.58
2019-05-21T09:25:35.829Z,13.62
2019-05-21T09:28:04.842Z,13.43
2019-05-21T09:30:33.899Z,13.62
2019-05-21T09:33:02.947Z,13.42
2019-05-21T09:35:32.010Z,13.48
2019-05-21T09:38:01.063Z,13.71
2019-05-21T09:40:30.127Z,13.52
2019-05-21T09:42:59.184Z,13.48
2019-05-21T09:45:28.269Z,13.62
2019-05-21T09:47:57.319Z,13.64
2019-05-21T09:50:26.532Z,13.87
2019-05-21T09:52:55.604Z,13.72
2019-05-21T09:55:24.707Z,13.73
2019-05-21T09:58:00.301Z,13.87
2019-05-21T10:01:00.245Z,13.74
2019-05-21T10:03:31.758Z,13.73
2019-05-21T10:06:01.102Z,13.75
2019-05-21T10:08:30.368Z,13.80
2019-05-21T10:10:59.700Z,13.77
2019-05-21T10:13:29.103Z,13.61
2019-05-21T10:16:01.493Z,13.66
2019-05-21T10:18:29.840Z,13.92
2019-05-21T10:20:59.397Z,13.68
2019-05-21T10:23:28.596Z,13.81
2019-05-21T10:25:57.701Z,13.86
2019-05-21T10:28:26.777Z,13.86
2019-05-21T10:30:55.915Z,13.81
2019-05-21T10:33:25.210Z,13.65
2019-05-21T10:35:54.366Z,13.75
2019-05-21T10:38:23.451Z,13.77
2019-05-21T10:40:52.639Z,13.98
2019-05-21T10:43:21.827Z,13.93
2019-05-21T10:45:50.855Z,14.19
2019-05-21T10:48:19.977Z,14.08
2019-05-21T10:50:49.020Z,13.84
2019-05-21T10:53:18.067Z,13.97
2019-05-21T10:55:47.093Z,13.85
2019-05-21T10:58:16.181Z,13.88
2019-05-21T11:00:47.197Z,13.84
2019-05-21T11:03:19.986Z,13.98
2019-05-21T11:06:08.902Z,13.95
2019-05-21T11:08:26.461Z,14.04
2019-05-21T11:10:55.555Z,13.88
2019-05-21T11:13:24.632Z,13.90
2019-05-21T11:15:53.665Z,14.06
2019-05-21T11:18:22.726Z,14.02
2019-05-21T11:20:51.937Z,13.98
2019-05-21T11:23:21.085Z,13.94
2019-05-21T11:25:50.127Z,14.01
2019-05-21T11:28:19.190Z,14.24
2019-05-21T11:30:48.501Z,14.24
2019-05-21T11:33:17.884Z,14.14
2019-05-21T11:35:47.949Z,14.32
2019-05-21T11:38:17.061Z,14.36
2019-05-21T11:40:50.751Z,14.39
2019-05-21T11:43:16.943Z,14.22
2019-05-21T11:45:46.140Z,14.37
2019-05-21T11:48:15.232Z,14.39
2019-05-21T11:50:44.316Z,14.32
2019-05-21T11:53:13.386Z,14.16
2019-05-21T11:55:42.567Z,14.35
2019-05-21T11:58:11.655Z,14.36
2019-05-21T12:00:40.935Z,14.07
2019-05-21T12:03:10.686Z,14.27
2019-05-21T12:05:39.794Z,14.25
2019-05-21T12:08:09.648Z,14.30
2019-05-21T12:10:39.507Z,14.36
2019-05-21T12:13:08.531Z,14.28
2019-05-21T12:15:37.702Z,14.25
2019-05-21T12:18:06.781Z,14.29
2019-05-21T12:20:37.467Z,14.17
2019-05-21T12:23:06.838Z,14.49
2019-05-21T12:25:35.886Z,14.64
2019-05-21T12:28:04.997Z,14.57
2019-05-21T12:30:34.078Z,14.41
2019-05-21T12:33:03.144Z,14.32
2019-05-21T12:35:32.211Z,14.53
2019-05-21T12:38:01.236Z,14.38
2019-05-21T12:40:30.344Z,14.14
2019-05-21T12:42:59.375Z,14.14
2019-05-21T12:45:28.432Z,14.27
2019-05-21T12:48:08.123Z,14.29
2019-05-21T12:50:37.272Z,14.25
2019-05-21T12:53:06.332Z,14.18
2019-05-21T12:55:35.386Z,14.12
2019-05-21T12:58:06.063Z,13.95
2019-05-21T13:00:35.248Z,14.18
2019-05-21T13:03:04.294Z,14.17
2019-05-21T13:05:33.467Z,14.08
2019-05-21T13:08:02.579Z,14.07
2019-05-21T13:10:31.779Z,14.27
2019-05-21T13:13:00.887Z,14.17
2019-05-21T13:15:30.127Z,14.14
2019-05-21T13:17:59.204Z,14.37
2019-05-21T13:20:28.311Z,14.18
2019-05-21T13:22:57.443Z,14.21
2019-05-21T13:25:26.544Z,14.26
2019-05-21T13:27:57.709Z,14.26
2019-05-21T13:30:26.340Z,14.20
2019-05-21T13:32:56.173Z,14.18
2019-05-21T13:35:25.312Z,14.30
2019-05-21T13:37:54.404Z,14.19
2019-05-21T13:40:23.596Z,13.95
2019-05-21T13:42:52.639Z,13.95
2019-05-21T13:45:21.669Z,13.74
2019-05-21T13:47:56.516Z,13.80
2019-05-21T13:50:25.583Z,13.83
2019-05-21T13:52:54.616Z,13.51
2019-05-21T13:55:23.725Z,13.47
2019-05-21T13:57:52.976Z,13.43
2019-05-21T14:00:28.575Z,13.63
2019-05-21T14:02:57.603Z,13.58
2019-05-21T14:05:26.773Z,13.50
2019-05-21T14:07:56.176Z,13.64
2019-05-21T14:10:25.652Z,13.54
2019-05-21T14:12:54.722Z,13.52
2019-05-21T14:15:23.858Z,13.53
2019-05-21T14:17:52.963Z,13.56
2019-05-21T14:20:22.999Z,13.44
2019-05-21T14:22:52.043Z,13.48
2019-05-21T14:25:21.055Z,13.63
2019-05-21T14:27:50.334Z,14.23
2019-05-21T14:30:19.457Z,14.24
2019-05-21T14:32:48.543Z,14.04
2019-05-21T14:35:17.645Z,14.14
2019-05-21T14:37:46.737Z,14.05
2019-05-21T14:40:30.318Z,13.80
2019-05-21T14:42:59.273Z,13.92
2019-05-21T14:45:17.460Z,14.06
2019-05-21T14:47:46.544Z,14.08
2019-05-21T14:50:15.720Z,13.96
2019-05-21T14:52:44.828Z,14.32
2019-05-21T14:55:13.878Z,14.10
2019-05-21T14:57:42.961Z,13.88
2019-05-21T15:00:31.290Z,14.02
2019-05-21T15:03:00.430Z,13.73
2019-05-21T15:05:31.092Z,14.00
2019-05-21T15:08:00.206Z,13.85
2019-05-21T15:10:29.297Z,14.06
2019-05-21T15:12:58.342Z,14.02
2019-05-21T15:15:27.416Z,14.04
2019-05-21T15:17:56.519Z,14.09
2019-05-21T15:20:42.997Z,13.97
2019-05-21T15:23:12.020Z,14.13
2019-05-21T15:25:42.389Z,14.04
2019-05-21T15:28:11.399Z,14.09
2019-05-21T15:30:40.476Z,13.79
2019-05-21T15:33:09.615Z,13.67
2019-05-21T15:35:38.609Z,13.86
2019-05-21T15:38:07.666Z,14.07
2019-05-21T15:40:36.685Z,14.17
2019-05-21T15:43:05.778Z,14.06
2019-05-21T15:45:34.826Z,13.83
2019-05-21T15:48:05.163Z,13.69
2019-05-21T15:50:34.859Z,13.71
2019-05-21T15:53:04.041Z,13.77
2019-05-21T15:55:33.116Z,13.84
2019-05-21T15:58:03.094Z,13.89
2019-05-21T16:00:32.226Z,13.88
2019-05-21T16:03:01.399Z,13.91
2019-05-21T16:05:30.488Z,13.93
2019-05-21T16:07:59.656Z,13.88
2019-05-21T16:10:37.417Z,13.68
2019-05-21T16:13:06.466Z,13.63
2019-05-21T16:15:36.999Z,13.69
2019-05-21T16:18:06.096Z,13.95
2019-05-21T16:20:36.031Z,13.87
2019-05-21T16:23:05.256Z,13.68
2019-05-21T16:25:34.332Z,13.65
2019-05-21T16:28:03.438Z,13.63
2019-05-21T16:30:32.565Z,13.60
2019-05-21T16:33:01.704Z,13.76
2019-05-21T16:35:30.860Z,13.82
2019-05-21T16:37:59.943Z,13.51
2019-05-21T16:40:29.105Z,13.52
2019-05-21T16:42:58.172Z,13.59
2019-05-21T16:45:27.382Z,13.67
2019-05-21T16:47:56.449Z,13.56
2019-05-21T16:50:31.993Z,13.60
2019-05-21T16:53:01.046Z,13.74
2019-05-21T16:55:32.321Z,13.57
2019-05-21T16:58:01.438Z,13.58
2019-05-21T17:00:30.682Z,13.70
2019-05-21T17:02:59.911Z,13.79
2019-05-21T17:05:29.081Z,13.69
2019-05-21T17:07:58.139Z,13.63
2019-05-21T17:10:27.301Z,13.52
2019-05-21T17:12:56.346Z,13.55
2019-05-21T17:15:25.529Z,13.70
2019-05-21T17:17:54.613Z,13.66
2019-05-21T17:20:23.786Z,13.63
2019-05-21T17:22:52.927Z,13.51
2019-05-21T17:25:22.101Z,13.47
2019-05-21T17:27:51.264Z,13.37
2019-05-21T17:30:20.532Z,13.48
2019-05-21T17:32:49.706Z,13.44
2019-05-21T17:35:18.798Z,13.32
2019-05-21T17:37:47.917Z,13.30
2019-05-21T17:40:17.022Z,13.24
2019-05-21T17:42:46.134Z,13.33
2019-05-21T17:45:15.259Z,13.30
2019-05-21T17:47:44.249Z,13.28
2019-05-21T17:50:13.278Z,13.35
2019-05-21T17:52:42.442Z,13.29
2019-05-21T17:55:12.389Z,13.30
2019-05-21T17:57:42.257Z,13.19
2019-05-21T18:00:11.473Z,13.05
2019-05-21T18:02:41.085Z,13.22
2019-05-21T18:05:10.429Z,13.20
2019-05-21T18:07:41.240Z,13.07
2019-05-21T18:10:11.379Z,12.96
2019-05-21T18:12:40.577Z,12.93
2019-05-21T18:15:10.243Z,12.98
2019-05-21T18:17:40.162Z,12.98
2019-05-21T18:20:10.738Z,12.96
2019-05-21T18:22:40.186Z,12.93
2019-05-21T18:25:09.404Z,12.91
2019-05-21T18:27:38.623Z,12.84
2019-05-21T18:30:07.834Z,12.87
2019-05-21T18:32:37.093Z,12.87
2019-05-21T18:35:06.278Z,12.90
2019-05-21T18:37:36.491Z,12.80
2019-05-21T18:40:06.509Z,12.74
2019-05-21T18:42:35.745Z,12.66
2019-05-21T18:45:05.143Z,12.59
2019-05-21T18:47:34.281Z,12.59
2019-05-21T18:50:03.416Z,12.72
2019-05-21T18:52:32.661Z,11.88
2019-05-21T18:55:01.734Z,12.67
2019-05-21T18:57:30.923Z,12.87
2019-05-21T19:00:00.080Z,12.84
2019-05-21T19:02:29.364Z,12.92
2019-05-21T19:04:58.588Z,12.92
2019-05-21T19:07:27.770Z,12.77
2019-05-21T19:09:56.856Z,12.81
2019-05-21T19:12:37.466Z,12.78
2019-05-21T19:14:56.878Z,12.79
2019-05-21T19:17:35.207Z,12.84
2019-05-21T19:19:56.850Z,12.77
2019-05-21T19:22:27.704Z,10.91
2019-05-21T19:24:56.886Z,12.69
2019-05-21T19:27:26.045Z,12.63
2019-05-21T19:29:55.110Z,12.56
2019-05-21T19:32:24.311Z,12.59
2019-05-21T19:34:53.391Z,12.67
2019-05-21T19:37:22.572Z,12.66
2019-05-21T19:39:51.690Z,11.81
2019-05-21T19:42:20.860Z,12.64
2019-05-21T19:44:49.975Z,12.72
2019-05-21T19:47:19.081Z,12.65
2019-05-21T19:49:48.286Z,12.67
2019-05-21T19:52:17.410Z,12.67
2019-05-21T19:54:46.547Z,12.60
2019-05-21T19:57:15.690Z,12.64
2019-05-21T19:59:44.798Z,12.76
2019-05-21T20:02:13.963Z,12.78
2019-05-21T20:04:44.802Z,12.82
2019-05-21T20:07:15.146Z,12.79
2019-05-21T20:09:45.380Z,12.81
2019-05-21T20:12:15.464Z,12.85
2019-05-21T20:14:45.121Z,12.73
2019-05-21T20:17:15.715Z,12.73
2019-05-21T20:19:46.478Z,12.74
2019-05-21T20:22:15.624Z,12.66
2019-05-21T20:24:44.782Z,12.66
2019-05-21T20:27:14.874Z,12.72
2019-05-21T20:29:44.430Z,12.76
2019-05-21T20:32:16.378Z,12.76
2019-05-21T20:34:45.666Z,12.71
2019-05-21T20:37:29.755Z,12.62
2019-05-21T20:39:59.408Z,12.62
2019-05-21T20:42:29.084Z,12.41
2019-05-21T20:44:58.419Z,12.38
2019-05-21T20:47:28.984Z,12.47
2019-05-21T20:49:58.507Z,12.58
2019-05-21T20:52:27.628Z,12.59
2019-05-21T20:54:57.180Z,12.59
2019-05-21T20:57:27.104Z,12.64
2019-05-21T20:59:56.283Z,12.61
2019-05-21T21:02:26.311Z,12.61
2019-05-21T21:04:55.903Z,12.66
2019-05-21T21:07:25.063Z,12.61
2019-05-21T21:09:54.271Z,12.65
2019-05-21T21:12:23.946Z,12.52
2019-05-21T21:14:53.461Z,12.37
2019-05-21T21:17:23.866Z,12.41
2019-05-21T21:19:53.318Z,12.36
2019-05-21T21:22:22.465Z,12.41
2019-05-21T21:24:51.739Z,12.39
2019-05-21T21:27:20.943Z,12.31
2019-05-21T21:29:50.247Z,12.34
2019-05-21T21:32:19.410Z,11.83
2019-05-21T21:34:48.502Z,12.37
2019-05-21T21:37:17.689Z,12.41
2019-05-21T21:39:46.872Z,12.37
2019-05-21T21:42:16.291Z,12.20
2019-05-21T21:44:45.684Z,12.17
2019-05-21T21:47:15.878Z,12.07
2019-05-21T21:49:45.170Z,11.99
2019-05-21T21:52:15.066Z,11.99
2019-05-21T21:54:45.487Z,11.97
2019-05-21T21:57:14.882Z,12.08
2019-05-21T21:59:44.272Z,12.02
2019-05-21T22:02:32.320Z,12.03
2019-05-21T22:05:01.792Z,12.10
2019-05-21T22:07:32.222Z,12.14
2019-05-21T22:10:01.583Z,12.12
2019-05-21T22:12:31.480Z,12.17
2019-05-21T22:15:02.050Z,12.13
2019-05-21T22:17:35.305Z,12.11
2019-05-21T22:20:06.184Z,12.03
2019-05-21T22:22:35.215Z,12.05
2019-05-21T22:25:04.629Z,12.14
2019-05-21T22:27:35.045Z,12.03
2019-05-21T22:30:05.144Z,12.05
2019-05-21T22:32:34.256Z,12.15
2019-05-21T22:35:03.383Z,12.20
2019-05-21T22:37:32.529Z,12.11
2019-05-21T22:40:01.684Z,12.06
2019-05-21T22:42:31.707Z,11.89
2019-05-21T22:45:07.801Z,11.89
2019-05-21T22:47:31.941Z,11.85
2019-05-21T22:50:01.161Z,11.97
2019-05-21T22:52:30.902Z,11.86
2019-05-21T22:55:00.664Z,11.97
2019-05-21T22:57:29.930Z,11.87
2019-05-21T22:59:59.111Z,11.90
2019-05-21T23:02:31.012Z,11.79
2019-05-21T23:05:00.248Z,11.89
2019-05-21T23:07:29.329Z,11.75
2019-05-21T23:09:58.591Z,11.64
2019-05-21T23:12:28.648Z,11.71
2019-05-21T23:14:57.734Z,11.67
2019-05-21T23:17:27.026Z,11.65
2019-05-21T23:19:57.044Z,11.61
2019-05-21T23:22:26.227Z,11.72
2019-05-21T23:24:55.416Z,11.72
2019-05-21T23:27:24.692Z,11.70
2019-05-21T23:29:54.347Z,11.69
2019-05-21T23:32:23.617Z,11.58
2019-05-21T23:34:53.581Z,11.66
2019-05-21T23:37:24.375Z,11.78
2019-05-21T23:39:54.433Z,11.80
2019-05-21T23:42:29.427Z,11.77
2019-05-21T23:44:54.476Z,11.80
2019-05-21T23:47:23.666Z,11.76
2019-05-21T23:49:52.763Z,11.82
2019-05-21T23:52:21.979Z,11.86
2019-05-21T23:54:51.191Z,11.78
2019-05-21T23:57:25.713Z,11.82
2019-05-21T23:59:55.019Z,11.86
